Time,TemperatureF,DewpointF,PressureIn,WindDirection,WindDirectionDegrees,WindSpeedMPH,WindSpeedGustMPH,Humidity,HourlyPrecipIn,Conditions,Clouds,dailyrainin,SoftwareType,DateUTC
2013-02-25 00:00:00,30.9,25.5,30.04,North,351,3.0,14.0,80,0.00,,,0.00,Wunderground v.1.13,2013-02-25 07:00:00,
2013-02-25 00:05:00,30.7,25.3,30.04,North,350,4.0,14.0,80,0.00,,,0.00,Wunderground v.1.13,2013-02-25 07:05:00,
2013-02-25 00:10:00,30.6,24.9,30.04,NNW,346,5.0,14.0,79,0.00,,,0.00,Wunderground v.1.13,2013-02-25 07:10:00,
2013-02-25 00:20:00,30.0,24.3,30.03,North,360,4.0,4.0,79,0.00,,,0.00,Wunderground v.1.13,2013-02-25 07:20:00,
2013-02-25 00:30:00,29.8,24.4,30.03,NNW,333,3.0,14.0,80,0.00,,,0.00,Wunderground v.1.13,2013-02-25 07:30:00,
2013-02-25 00:35:00,29.8,24.4,30.03,NNW,338,3.0,3.0,80,0.00,,,0.00,Wunderground v.1.13,2013-02-25 07:35:00,
2013-02-25 00:40:00,30.0,24.6,30.03,North,351,4.0,14.0,80,0.00,,,0.00,Wunderground v.1.13,2013-02-25 07:40:00,
2013-02-25 00:50:00,29.8,24.4,30.03,NW,321,4.0,14.0,80,0.00,,,0.00,Wunderground v.1.13,2013-02-25 07:50:00,
2013-02-25 00:55:00,29.7,24.6,30.03,North,5,4.0,14.0,81,0.00,,,0.00,Wunderground v.1.13,2013-02-25 07:55:00,
2013-02-25 01:00:00,29.4,24.3,30.03,NW,319,3.0,3.0,81,0.00,,,0.00,Wunderground v.1.13,2013-02-25 08:00:00,
2013-02-25 01:05:00,29.3,24.2,30.03,NNW,333,2.0,2.0,81,0.00,,,0.00,Wunderground v.1.13,2013-02-25 08:05:00,
2013-02-25 01:10:00,29.0,24.2,30.03,NNW,334,1.0,1.0,82,0.00,,,0.00,Wunderground v.1.13,2013-02-25 08:10:00,
2013-02-25 01:15:00,29.1,24.3,30.03,NNW,336,2.0,14.0,82,0.00,,,0.00,Wunderground v.1.13,2013-02-25 08:15:00,
2013-02-25 01:20:00,29.1,24.3,30.03,NNW,331,3.0,14.0,82,0.00,,,0.00,Wunderground v.1.13,2013-02-25 08:20:00,
2013-02-25 01:25:00,29.0,24.2,30.03,NNW,329,2.0,14.0,82,0.00,,,0.00,Wunderground v.1.13,2013-02-25 08:25:00,
2013-02-25 01:30:00,28.8,24.0,30.03,NNW,332,2.0,2.0,82,0.00,,,0.00,Wunderground v.1.13,2013-02-25 08:30:00,
2013-02-25 01:35:00,28.7,24.2,30.04,NNW,335,3.0,3.0,83,0.00,,,0.00,Wunderground v.1.13,2013-02-25 08:35:00,
2013-02-25 01:45:00,28.5,23.7,30.04,NNW,342,2.0,14.0,82,0.00,,,0.00,Wunderground v.1.13,2013-02-25 08:45:00,
2013-02-25 01:50:00,28.5,23.7,30.05,NNW,338,3.0,3.0,82,0.00,,,0.00,Wunderground v.1.13,2013-02-25 08:50:00,
2013-02-25 01:55:00,28.5,23.7,30.05,North,351,3.0,3.0,82,0.00,,,0.00,Wunderground v.1.13,2013-02-25 08:55:00,
2013-02-25 02:00:00,28.5,23.7,30.05,North,351,1.0,14.0,82,0.00,,,0.00,Wunderground v.1.13,2013-02-25 09:00:00,
2013-02-25 02:05:00,28.4,23.9,30.04,North,351,1.0,14.0,83,0.00,,,0.00,Wunderground v.1.13,2013-02-25 09:05:00,
2013-02-25 02:15:00,27.9,23.1,30.04,NNW,334,2.0,2.0,82,0.00,,,0.00,Wunderground v.1.13,2013-02-25 09:15:00,
2013-02-25 02:20:00,27.3,22.8,30.04,NNW,333,1.0,1.0,83,0.00,,,0.00,Wunderground v.1.13,2013-02-25 09:20:00,
2013-02-25 02:25:00,27.2,22.7,30.04,NNW,332,0.0,14.0,83,0.00,,,0.00,Wunderground v.1.13,2013-02-25 09:25:00,
2013-02-25 02:30:00,27.0,22.8,30.04,NNW,333,0.0,14.0,84,0.00,,,0.00,Wunderground v.1.13,2013-02-25 09:30:00,
2013-02-25 02:35:00,27.0,22.8,30.05,NNW,333,0.0,14.0,84,0.00,,,0.00,Wunderground v.1.13,2013-02-25 09:35:00,
2013-02-25 02:40:00,27.2,23.0,30.05,NNW,332,0.0,14.0,84,0.00,,,0.00,Wunderground v.1.13,2013-02-25 09:40:00,
2013-02-25 02:45:00,27.0,22.8,30.05,NNW,336,0.0,14.0,84,0.00,,,0.00,Wunderground v.1.13,2013-02-25 09:45:00,
2013-02-25 02:50:00,27.0,22.8,30.04,NNW,336,0.0,14.0,84,0.00,,,0.00,Wunderground v.1.13,2013-02-25 09:50:00,
2013-02-25 02:55:00,26.9,22.7,30.04,NNW,334,0.0,14.0,84,0.00,,,0.00,Wunderground v.1.13,2013-02-25 09:55:00,
2013-02-25 03:00:00,26.7,22.8,30.04,NNW,334,0.0,14.0,85,0.00,,,0.00,Wunderground v.1.13,2013-02-25 10:00:00,
2013-02-25 03:10:00,26.7,22.8,30.03,NNW,333,0.0,14.0,85,0.00,,,0.00,Wunderground v.1.13,2013-02-25 10:10:00,
2013-02-25 03:20:00,27.0,23.1,30.03,NNW,335,0.0,14.0,85,0.00,,,0.00,Wunderground v.1.13,2013-02-25 10:20:00,
2013-02-25 03:25:00,26.9,23.0,30.03,NNW,335,0.0,14.0,85,0.00,,,0.00,Wunderground v.1.13,2013-02-25 10:25:00,
2013-02-25 03:35:00,26.6,22.7,30.03,NNW,335,0.0,14.0,85,0.00,,,0.00,Wunderground v.1.13,2013-02-25 10:35:00,
2013-02-25 03:40:00,26.4,22.5,30.03,NNW,335,0.0,14.0,85,0.00,,,0.00,Wunderground v.1.13,2013-02-25 10:40:00,
2013-02-25 03:45:00,26.3,22.4,30.03,NNW,335,0.0,14.0,85,0.00,,,0.00,Wunderground v.1.13,2013-02-25 10:45:00,
2013-02-25 03:50:00,26.3,22.7,30.02,NNW,335,0.0,14.0,86,0.00,,,0.00,Wunderground v.1.13,2013-02-25 10:50:00,
2013-02-25 04:00:00,26.6,23.0,30.02,NNW,335,0.0,14.0,86,0.00,,,0.00,Wunderground v.1.13,2013-02-25 11:00:00,
2013-02-25 04:05:00,26.6,23.0,30.02,NNW,335,0.0,14.0,86,0.00,,,0.00,Wunderground v.1.13,2013-02-25 11:05:00,
2013-02-25 04:10:00,26.4,22.8,30.02,NNW,335,0.0,14.0,86,0.00,,,0.00,Wunderground v.1.13,2013-02-25 11:10:00,
2013-02-25 04:15:00,26.3,22.7,30.02,NNW,335,0.0,14.0,86,0.00,,,0.00,Wunderground v.1.13,2013-02-25 11:15:00,
2013-02-25 04:25:00,25.8,21.9,30.02,NNW,335,0.0,14.0,85,0.00,,,0.00,Wunderground v.1.13,2013-02-25 11:25:00,
2013-02-25 04:30:00,25.6,21.7,30.02,NNW,334,0.0,14.0,85,0.00,,,0.00,Wunderground v.1.13,2013-02-25 11:30:00,
2013-02-25 04:35:00,25.4,21.5,30.02,NNW,334,0.0,14.0,85,0.00,,,0.00,Wunderground v.1.13,2013-02-25 11:35:00,
2013-02-25 04:40:00,25.4,21.8,30.02,NNW,327,1.0,14.0,86,0.00,,,0.00,Wunderground v.1.13,2013-02-25 11:40:00,
2013-02-25 04:45:00,25.4,21.8,30.02,NNW,329,3.0,14.0,86,0.00,,,0.00,Wunderground v.1.13,2013-02-25 11:45:00,
2013-02-25 04:55:00,25.0,21.1,30.00,NNW,330,1.0,1.0,85,0.00,,,0.00,Wunderground v.1.13,2013-02-25 11:55:00,
2013-02-25 05:00:00,24.7,21.1,30.00,NNW,331,1.0,1.0,86,0.00,,,0.00,Wunderground v.1.13,2013-02-25 12:00:00,
2013-02-25 05:05:00,24.5,20.6,30.01,NNW,331,0.0,14.0,85,0.00,,,0.00,Wunderground v.1.13,2013-02-25 12:05:00,
2013-02-25 05:10:00,24.2,20.6,30.01,NW,326,0.0,14.0,86,0.00,,,0.00,Wunderground v.1.13,2013-02-25 12:10:00,
2013-02-25 05:15:00,24.1,20.5,30.01,NW,320,0.0,14.0,86,0.00,,,0.00,Wunderground v.1.13,2013-02-25 12:15:00,
2013-02-25 05:20:00,24.1,20.5,30.02,NW,321,1.0,1.0,86,0.00,,,0.00,Wunderground v.1.13,2013-02-25 12:20:00,
2013-02-25 05:25:00,24.2,20.6,30.02,NW,321,1.0,1.0,86,0.00,,,0.00,Wunderground v.1.13,2013-02-25 12:25:00,
2013-02-25 05:30:00,24.1,20.5,30.02,NW,325,1.0,1.0,86,0.00,,,0.00,Wunderground v.1.13,2013-02-25 12:30:00,
2013-02-25 05:35:00,23.6,20.0,30.03,NW,325,0.0,14.0,86,0.00,,,0.00,Wunderground v.1.13,2013-02-25 12:35:00,
2013-02-25 05:40:00,23.5,19.9,30.03,NW,325,0.0,14.0,86,0.00,,,0.00,Wunderground v.1.13,2013-02-25 12:40:00,
2013-02-25 05:45:00,23.5,19.9,30.03,NW,325,0.0,14.0,86,0.00,,,0.00,Wunderground v.1.13,2013-02-25 12:45:00,
2013-02-25 05:50:00,23.2,19.6,30.04,NW,325,0.0,14.0,86,0.00,,,0.00,Wunderground v.1.13,2013-02-25 12:50:00,
2013-02-25 05:55:00,23.0,19.4,30.04,NW,325,0.0,14.0,86,0.00,,,0.00,Wunderground v.1.13,2013-02-25 12:55:00,
2013-02-25 06:00:00,22.9,19.3,30.04,NW,325,0.0,14.0,86,0.00,,,0.00,Wunderground v.1.13,2013-02-25 13:00:00,
2013-02-25 06:05:00,22.7,19.1,30.05,NW,325,0.0,14.0,86,0.00,,,0.00,Wunderground v.1.13,2013-02-25 13:05:00,
2013-02-25 06:10:00,22.5,18.9,30.05,NW,325,0.0,14.0,86,0.00,,,0.00,Wunderground v.1.13,2013-02-25 13:10:00,
2013-02-25 06:15:00,22.2,18.7,30.05,NW,325,0.0,14.0,86,0.00,,,0.00,Wunderground v.1.13,2013-02-25 13:15:00,
2013-02-25 06:20:00,22.1,18.6,30.06,NW,325,0.0,14.0,86,0.00,,,0.00,Wunderground v.1.13,2013-02-25 13:20:00,
2013-02-25 06:25:00,21.6,18.1,30.06,NW,325,0.0,14.0,86,0.00,,,0.00,Wunderground v.1.13,2013-02-25 13:25:00,
2013-02-25 06:30:00,21.0,17.5,30.06,NW,325,0.0,14.0,86,0.00,,,0.00,Wunderground v.1.13,2013-02-25 13:30:00,
2013-02-25 06:35:00,20.5,17.0,30.06,NW,325,0.0,14.0,86,0.00,,,0.00,Wunderground v.1.13,2013-02-25 13:35:00,
2013-02-25 06:40:00,20.2,16.7,30.06,NW,325,0.0,14.0,86,0.00,,,0.00,Wunderground v.1.13,2013-02-25 13:40:00,
2013-02-25 06:45:00,20.2,17.0,30.06,NW,325,0.0,14.0,87,0.00,,,0.00,Wunderground v.1.13,2013-02-25 13:45:00,
2013-02-25 06:55:00,20.2,17.0,30.07,NW,325,0.0,14.0,87,0.00,,,0.00,Wunderground v.1.13,2013-02-25 13:55:00,
2013-02-25 07:00:00,20.0,16.8,30.07,NW,325,0.0,14.0,87,0.00,,,0.00,Wunderground v.1.13,2013-02-25 14:00:00,
2013-02-25 07:05:00,20.2,17.0,30.06,NW,325,0.0,14.0,87,0.00,,,0.00,Wunderground v.1.13,2013-02-25 14:05:00,
2013-02-25 07:10:00,20.5,17.2,30.06,NW,325,0.0,14.0,87,0.00,,,0.00,Wunderground v.1.13,2013-02-25 14:10:00,
2013-02-25 07:20:00,21.8,18.5,30.06,NW,325,0.0,14.0,87,0.00,,,0.00,Wunderground v.1.13,2013-02-25 14:20:00,
2013-02-25 07:25:00,22.4,18.8,30.06,NW,325,0.0,14.0,86,0.00,,,0.00,Wunderground v.1.13,2013-02-25 14:25:00,
2013-02-25 07:30:00,22.7,18.9,30.06,NW,325,0.0,14.0,85,0.00,,,0.00,Wunderground v.1.13,2013-02-25 14:30:00,
2013-02-25 07:35:00,22.9,19.1,30.08,NW,325,0.0,14.0,85,0.00,,,0.00,Wunderground v.1.13,2013-02-25 14:35:00,
2013-02-25 07:40:00,23.3,19.2,30.08,NW,325,0.0,14.0,84,0.00,,,0.00,Wunderground v.1.13,2013-02-25 14:40:00,
2013-02-25 07:45:00,23.9,19.8,30.08,NW,324,1.0,14.0,84,0.00,,,0.00,Wunderground v.1.13,2013-02-25 14:45:00,
2013-02-25 07:55:00,24.8,20.1,30.08,NW,326,2.0,2.0,82,0.00,,,0.00,Wunderground v.1.13,2013-02-25 14:55:00,
2013-02-25 08:00:00,25.1,20.1,30.08,NW,326,1.0,1.0,81,0.00,,,0.00,Wunderground v.1.13,2013-02-25 15:00:00,
2013-02-25 08:05:00,25.3,20.0,30.08,NNW,329,1.0,1.0,80,0.00,,,0.00,Wunderground v.1.13,2013-02-25 15:05:00,
2013-02-25 08:10:00,25.7,20.4,30.08,NNW,329,1.0,14.0,80,0.00,,,0.00,Wunderground v.1.13,2013-02-25 15:10:00,
2013-02-25 08:15:00,26.0,20.4,30.08,NNW,331,2.0,14.0,79,0.00,,,0.00,Wunderground v.1.13,2013-02-25 15:15:00,
2013-02-25 08:20:00,26.4,20.8,30.08,NNW,333,3.0,3.0,79,0.00,,,0.00,Wunderground v.1.13,2013-02-25 15:20:00,
2013-02-25 08:25:00,26.9,20.7,30.08,NW,315,3.0,14.0,77,0.00,,,0.00,Wunderground v.1.13,2013-02-25 15:25:00,
2013-02-25 08:30:00,27.0,20.4,30.08,NW,324,4.0,14.0,76,0.00,,,0.00,Wunderground v.1.13,2013-02-25 15:30:00,
2013-02-25 08:35:00,27.0,20.4,30.07,NW,322,6.0,14.0,76,0.00,,,0.00,Wunderground v.1.13,2013-02-25 15:35:00,
2013-02-25 08:40:00,27.2,20.3,30.07,NW,323,6.0,14.0,75,0.00,,,0.00,Wunderground v.1.13,2013-02-25 15:40:00,
2013-02-25 08:45:00,27.3,20.4,30.07,NW,318,6.0,6.0,75,0.00,,,0.00,Wunderground v.1.13,2013-02-25 15:45:00,
2013-02-25 08:50:00,27.6,20.4,30.07,NW,317,4.0,14.0,74,0.00,,,0.00,Wunderground v.1.13,2013-02-25 15:50:00,
2013-02-25 08:55:00,27.9,20.7,30.07,NW,321,3.0,3.0,74,0.00,,,0.00,Wunderground v.1.13,2013-02-25 15:55:00,
2013-02-25 09:00:00,28.2,20.7,30.07,NNW,327,3.0,14.0,73,0.00,,,0.00,Wunderground v.1.13,2013-02-25 16:00:00,
2013-02-25 09:05:00,28.4,20.8,30.07,NNW,334,3.0,14.0,73,0.00,,,0.00,Wunderground v.1.13,2013-02-25 16:05:00,
2013-02-25 09:15:00,29.1,21.5,30.07,NNW,332,3.0,14.0,73,0.00,,,0.00,Wunderground v.1.13,2013-02-25 16:15:00,
2013-02-25 09:20:00,29.3,21.4,30.06,NNW,327,3.0,14.0,72,0.00,,,0.00,Wunderground v.1.13,2013-02-25 16:20:00,
2013-02-25 09:25:00,29.4,21.5,30.06,NW,326,3.0,3.0,72,0.00,,,0.00,Wunderground v.1.13,2013-02-25 16:25:00,
2013-02-25 09:30:00,29.7,21.4,30.06,NNW,330,2.0,2.0,71,0.00,,,0.00,Wunderground v.1.13,2013-02-25 16:30:00,
2013-02-25 09:35:00,29.7,21.4,30.06,NNW,348,3.0,14.0,71,0.00,,,0.00,Wunderground v.1.13,2013-02-25 16:35:00,
2013-02-25 09:40:00,30.0,21.7,30.06,NW,310,4.0,14.0,71,0.00,,,0.00,Wunderground v.1.13,2013-02-25 16:40:00,
2013-02-25 09:45:00,30.0,21.4,30.06,NW,308,3.0,14.0,70,0.00,,,0.00,Wunderground v.1.13,2013-02-25 16:45:00,
2013-02-25 09:50:00,29.8,21.5,30.05,NW,315,4.0,14.0,71,0.00,,,0.00,Wunderground v.1.13,2013-02-25 16:50:00,
2013-02-25 09:55:00,30.0,21.7,30.05,NW,313,5.0,5.0,71,0.00,,,0.00,Wunderground v.1.13,2013-02-25 16:55:00,
2013-02-25 10:00:00,30.4,21.8,30.05,NW,314,4.0,14.0,70,0.00,,,0.00,Wunderground v.1.13,2013-02-25 17:00:00,
2013-02-25 10:05:00,30.1,21.5,30.05,NW,304,4.0,4.0,70,0.00,,,0.00,Wunderground v.1.13,2013-02-25 17:05:00,
2013-02-25 10:10:00,30.4,21.8,30.05,NNW,331,3.0,14.0,70,0.00,,,0.00,Wunderground v.1.13,2013-02-25 17:10:00,
2013-02-25 10:20:00,30.6,22.0,30.04,NW,313,4.0,4.0,70,0.00,,,0.00,Wunderground v.1.13,2013-02-25 17:20:00,
2013-02-25 10:25:00,30.7,22.1,30.04,NW,309,2.0,14.0,70,0.00,,,0.00,Wunderground v.1.13,2013-02-25 17:25:00,
2013-02-25 10:30:00,31.2,22.2,30.04,NW,325,3.0,14.0,69,0.00,,,0.00,Wunderground v.1.13,2013-02-25 17:30:00,
2013-02-25 10:35:00,31.2,21.9,30.03,NW,321,4.0,14.0,68,0.00,,,0.00,Wunderground v.1.13,2013-02-25 17:35:00,
2013-02-25 10:40:00,31.3,21.6,30.03,NW,317,4.0,14.0,67,0.00,,,0.00,Wunderground v.1.13,2013-02-25 17:40:00,
2013-02-25 10:45:00,31.0,21.3,30.03,NW,306,6.0,14.0,67,0.00,,,0.00,Wunderground v.1.13,2013-02-25 17:45:00,
2013-02-25 10:50:00,31.2,21.9,30.03,NW,320,6.0,6.0,68,0.00,,,0.00,Wunderground v.1.13,2013-02-25 17:50:00,
2013-02-25 10:55:00,31.5,21.8,30.03,NNW,344,5.0,14.0,67,0.00,,,0.00,Wunderground v.1.13,2013-02-25 17:55:00,
2013-02-25 11:00:00,31.3,22.0,30.03,NNW,347,6.0,6.0,68,0.00,,,0.01,Wunderground v.1.13,2013-02-25 18:00:00,
2013-02-25 11:10:00,31.6,22.2,30.02,NNW,340,6.0,14.0,68,0.00,,,0.01,Wunderground v.1.13,2013-02-25 18:10:00,
2013-02-25 11:15:00,31.9,22.5,30.02,NNW,329,5.0,14.0,68,0.00,,,0.01,Wunderground v.1.13,2013-02-25 18:15:00,
2013-02-25 11:20:00,32.1,22.4,30.01,NNW,344,5.0,14.0,67,0.00,,,0.01,Wunderground v.1.13,2013-02-25 18:20:00,
2013-02-25 11:25:00,32.2,22.5,30.01,NW,314,5.0,5.0,67,0.00,,,0.01,Wunderground v.1.13,2013-02-25 18:25:00,
2013-02-25 11:30:00,32.5,22.8,30.01,NNW,336,4.0,4.0,67,0.00,,,0.01,Wunderground v.1.13,2013-02-25 18:30:00,
2013-02-25 11:35:00,32.5,22.4,30.01,NW,304,3.0,14.0,66,0.00,,,0.01,Wunderground v.1.13,2013-02-25 18:35:00,
2013-02-25 11:45:00,32.5,22.4,30.01,NW,315,4.0,14.0,66,0.00,,,0.01,Wunderground v.1.13,2013-02-25 18:45:00,
2013-02-25 11:50:00,32.7,22.6,30.00,NW,317,4.0,14.0,66,0.00,,,0.01,Wunderground v.1.13,2013-02-25 18:50:00,
2013-02-25 11:55:00,32.4,22.3,30.00,WNW,301,4.0,14.0,66,0.00,,,0.01,Wunderground v.1.13,2013-02-25 18:55:00,
2013-02-25 12:00:00,32.4,22.7,30.00,NW,312,5.0,5.0,67,0.00,,,0.01,Wunderground v.1.13,2013-02-25 19:00:00,
2013-02-25 12:05:00,32.9,22.8,29.99,NW,308,3.0,3.0,66,0.00,,,0.01,Wunderground v.1.13,2013-02-25 19:05:00,
2013-02-25 12:10:00,32.9,22.8,29.99,NW,320,1.0,14.0,66,0.00,,,0.01,Wunderground v.1.13,2013-02-25 19:10:00,
2013-02-25 12:15:00,33.1,22.6,29.99,NW,307,2.0,2.0,65,0.00,,,0.01,Wunderground v.1.13,2013-02-25 19:15:00,
2013-02-25 12:20:00,33.1,23.0,29.98,WNW,302,2.0,2.0,66,0.00,,,0.01,Wunderground v.1.13,2013-02-25 19:20:00,
2013-02-25 12:25:00,33.7,23.2,29.98,NW,311,1.0,1.0,65,0.00,,,0.01,Wunderground v.1.13,2013-02-25 19:25:00,
2013-02-25 12:35:00,34.0,23.5,29.97,NNW,331,1.0,1.0,65,0.00,,,0.01,Wunderground v.1.13,2013-02-25 19:35:00,
2013-02-25 12:45:00,33.8,22.9,29.97,NNW,339,4.0,4.0,64,0.00,,,0.01,Wunderground v.1.13,2013-02-25 19:45:00,
2013-02-25 12:50:00,34.1,23.6,29.96,NW,322,4.0,4.0,65,0.00,,,0.01,Wunderground v.1.13,2013-02-25 19:50:00,
2013-02-25 13:00:00,34.4,23.8,29.96,NW,311,3.0,14.0,65,0.00,,,0.01,Wunderground v.1.13,2013-02-25 20:00:00,
2013-02-25 13:05:00,34.6,24.0,29.96,NW,321,3.0,14.0,65,0.00,,,0.01,Wunderground v.1.13,2013-02-25 20:05:00,
2013-02-25 13:10:00,34.9,23.6,29.96,NNW,334,4.0,14.0,63,0.00,,,0.01,Wunderground v.1.13,2013-02-25 20:10:00,
2013-02-25 13:15:00,35.2,23.9,29.96,NW,317,3.0,3.0,63,0.00,,,0.01,Wunderground v.1.13,2013-02-25 20:15:00,
2013-02-25 13:25:00,35.6,23.9,29.95,NW,305,1.0,14.0,62,0.00,,,0.01,Wunderground v.1.13,2013-02-25 20:25:00,
2013-02-25 13:30:00,35.3,22.8,29.95,NNW,329,2.0,14.0,60,0.00,,,0.01,Wunderground v.1.13,2013-02-25 20:30:00,
2013-02-25 13:35:00,35.5,23.4,29.95,NNW,334,3.0,3.0,61,0.00,,,0.01,Wunderground v.1.13,2013-02-25 20:35:00,
2013-02-25 13:45:00,35.6,23.1,29.95,NW,326,4.0,14.0,60,0.00,,,0.01,Wunderground v.1.13,2013-02-25 20:45:00,
2013-02-25 13:50:00,35.9,23.4,29.95,NW,317,3.0,14.0,60,0.00,,,0.01,Wunderground v.1.13,2013-02-25 20:50:00,
2013-02-25 13:55:00,35.6,22.7,29.95,NW,321,4.0,4.0,59,0.00,,,0.01,Wunderground v.1.13,2013-02-25 20:55:00,
2013-02-25 14:00:00,35.6,23.1,29.95,NW,325,5.0,14.0,60,0.00,,,0.01,Wunderground v.1.13,2013-02-25 21:00:00,
2013-02-25 14:05:00,35.9,23.7,29.95,NW,316,3.0,14.0,61,0.00,,,0.01,Wunderground v.1.13,2013-02-25 21:05:00,
2013-02-25 14:10:00,36.0,23.4,29.95,NNW,331,3.0,3.0,60,0.00,,,0.01,Wunderground v.1.13,2013-02-25 21:10:00,
2013-02-25 14:15:00,36.2,23.6,29.95,NW,321,4.0,4.0,60,0.00,,,0.01,Wunderground v.1.13,2013-02-25 21:15:00,
2013-02-25 14:20:00,36.2,23.2,29.95,NW,322,2.0,14.0,59,0.00,,,0.01,Wunderground v.1.13,2013-02-25 21:20:00,
2013-02-25 14:25:00,36.0,23.0,29.95,NW,316,3.0,14.0,59,0.00,,,0.01,Wunderground v.1.13,2013-02-25 21:25:00,
2013-02-25 14:30:00,36.5,23.5,29.95,NW,317,3.0,3.0,59,0.00,,,0.01,Wunderground v.1.13,2013-02-25 21:30:00,
2013-02-25 14:35:00,36.8,23.0,29.94,NW,316,1.0,14.0,57,0.00,,,0.01,Wunderground v.1.13,2013-02-25 21:35:00,
2013-02-25 14:40:00,36.6,22.8,29.94,NW,317,1.0,14.0,57,0.00,,,0.01,Wunderground v.1.13,2013-02-25 21:40:00,
2013-02-25 14:45:00,36.6,22.8,29.94,NNW,331,2.0,2.0,57,0.00,,,0.01,Wunderground v.1.13,2013-02-25 21:45:00,
2013-02-25 14:50:00,36.8,23.4,29.94,NNW,331,1.0,1.0,58,0.00,,,0.01,Wunderground v.1.13,2013-02-25 21:50:00,
2013-02-25 14:55:00,36.6,23.2,29.94,NW,317,1.0,1.0,58,0.00,,,0.01,Wunderground v.1.13,2013-02-25 21:55:00,
2013-02-25 15:00:00,36.9,23.5,29.94,NW,317,1.0,1.0,58,0.00,,,0.01,Wunderground v.1.13,2013-02-25 22:00:00,
2013-02-25 15:05:00,36.9,23.5,29.94,NW,317,0.0,14.0,58,0.00,,,0.01,Wunderground v.1.13,2013-02-25 22:05:00,
2013-02-25 15:10:00,37.0,23.6,29.94,NW,322,1.0,1.0,58,0.00,,,0.01,Wunderground v.1.13,2013-02-25 22:10:00,
2013-02-25 15:15:00,37.2,23.4,29.94,NW,322,1.0,1.0,57,0.00,,,0.01,Wunderground v.1.13,2013-02-25 22:15:00,
2013-02-25 15:20:00,36.9,23.1,29.94,NW,322,1.0,1.0,57,0.00,,,0.01,Wunderground v.1.13,2013-02-25 22:20:00,
2013-02-25 15:25:00,36.9,23.1,29.94,NW,311,0.0,14.0,57,0.00,,,0.01,Wunderground v.1.13,2013-02-25 22:25:00,
2013-02-25 15:30:00,36.9,23.1,29.94,NW,311,0.0,14.0,57,0.00,,,0.01,Wunderground v.1.13,2013-02-25 22:30:00,
2013-02-25 15:35:00,37.2,23.4,29.94,NW,311,0.0,14.0,57,0.00,,,0.01,Wunderground v.1.13,2013-02-25 22:35:00,
2013-02-25 15:40:00,37.3,23.0,29.94,NW,311,0.0,14.0,56,0.00,,,0.01,Wunderground v.1.13,2013-02-25 22:40:00,
2013-02-25 15:45:00,37.3,23.0,29.94,NW,311,0.0,14.0,56,0.00,,,0.01,Wunderground v.1.13,2013-02-25 22:45:00,
2013-02-25 15:55:00,38.0,23.3,29.94,NW,311,0.0,14.0,55,0.00,,,0.01,Wunderground v.1.13,2013-02-25 22:55:00,
2013-02-25 16:00:00,38.0,23.3,29.94,NW,311,0.0,14.0,55,0.00,,,0.01,Wunderground v.1.13,2013-02-25 23:00:00,
2013-02-25 16:10:00,37.3,23.0,29.93,NW,311,0.0,14.0,56,0.00,,,0.01,Wunderground v.1.13,2013-02-25 23:10:00,
2013-02-25 16:15:00,37.0,23.2,29.93,NW,311,0.0,14.0,57,0.00,,,0.01,Wunderground v.1.13,2013-02-25 23:15:00,
2013-02-25 16:25:00,36.9,23.1,29.92,NW,311,0.0,14.0,57,0.00,,,0.01,Wunderground v.1.13,2013-02-25 23:25:00,
2013-02-25 16:30:00,36.9,23.1,29.92,NW,311,0.0,14.0,57,0.00,,,0.01,Wunderground v.1.13,2013-02-25 23:30:00,
2013-02-25 16:35:00,36.8,23.0,29.92,NW,311,0.0,14.0,57,0.00,,,0.01,Wunderground v.1.13,2013-02-25 23:35:00,
2013-02-25 16:40:00,36.8,23.4,29.92,NW,311,0.0,14.0,58,0.00,,,0.01,Wunderground v.1.13,2013-02-25 23:40:00,
2013-02-25 16:45:00,36.6,23.2,29.92,NW,311,0.0,14.0,58,0.00,,,0.01,Wunderground v.1.13,2013-02-25 23:45:00,
2013-02-25 16:50:00,36.8,23.0,29.92,NW,311,0.0,14.0,57,0.00,,,0.01,Wunderground v.1.13,2013-02-25 23:50:00,
2013-02-25 16:55:00,36.8,23.0,29.92,NW,311,0.0,14.0,57,0.00,,,0.01,Wunderground v.1.13,2013-02-25 23:55:00,
2013-02-25 17:00:00,36.6,23.2,29.92,NW,311,0.0,14.0,58,0.00,,,0.01,Wunderground v.1.13,2013-02-26 00:00:00,
2013-02-25 17:05:00,36.5,23.1,29.92,NW,311,0.0,14.0,58,0.00,,,0.01,Wunderground v.1.13,2013-02-26 00:05:00,
2013-02-25 17:10:00,36.2,22.8,29.92,NW,311,0.0,14.0,58,0.00,,,0.01,Wunderground v.1.13,2013-02-26 00:10:00,
2013-02-25 17:15:00,35.9,23.0,29.92,NW,311,0.0,14.0,59,0.00,,,0.01,Wunderground v.1.13,2013-02-26 00:15:00,
2013-02-25 17:25:00,34.7,22.6,29.92,WNW,302,0.0,14.0,61,0.00,,,0.01,Wunderground v.1.13,2013-02-26 00:25:00,
2013-02-25 17:30:00,34.1,22.8,29.92,WNW,302,0.0,14.0,63,0.00,,,0.01,Wunderground v.1.13,2013-02-26 00:30:00,
2013-02-25 17:35:00,33.7,22.8,29.91,WNW,302,0.0,14.0,64,0.00,,,0.01,Wunderground v.1.13,2013-02-26 00:35:00,
2013-02-25 17:40:00,33.2,22.7,29.91,WNW,302,0.0,14.0,65,0.00,,,0.01,Wunderground v.1.13,2013-02-26 00:40:00,
2013-02-25 17:45:00,32.7,22.6,29.91,WNW,292,0.0,14.0,66,0.00,,,0.01,Wunderground v.1.13,2013-02-26 00:45:00,
2013-02-25 17:50:00,32.2,22.5,29.91,WNW,292,0.0,14.0,67,0.00,,,0.01,Wunderground v.1.13,2013-02-26 00:50:00,
2013-02-25 17:55:00,31.8,22.4,29.91,WNW,292,0.0,14.0,68,0.00,,,0.01,Wunderground v.1.13,2013-02-26 00:55:00,
2013-02-25 18:00:00,31.3,22.3,29.91,WNW,292,0.0,14.0,69,0.00,,,0.01,Wunderground v.1.13,2013-02-26 01:00:00,
2013-02-25 18:05:00,30.9,21.9,29.91,WNW,292,0.0,14.0,69,0.00,,,0.01,Wunderground v.1.13,2013-02-26 01:05:00,
2013-02-25 18:10:00,30.3,21.3,29.91,WNW,292,0.0,14.0,69,0.00,,,0.01,Wunderground v.1.13,2013-02-26 01:10:00,
2013-02-25 18:15:00,29.5,20.9,29.91,WNW,292,0.0,14.0,70,0.00,,,0.01,Wunderground v.1.13,2013-02-26 01:15:00,
2013-02-25 18:20:00,29.0,21.1,29.91,WNW,292,0.0,14.0,72,0.00,,,0.01,Wunderground v.1.13,2013-02-26 01:20:00,
2013-02-25 18:25:00,28.5,20.9,29.91,WNW,292,0.0,14.0,73,0.00,,,0.01,Wunderground v.1.13,2013-02-26 01:25:00,
2013-02-25 18:30:00,28.1,20.6,29.91,WNW,292,0.0,14.0,73,0.00,,,0.01,Wunderground v.1.13,2013-02-26 01:30:00,
2013-02-25 18:40:00,26.9,19.7,29.91,WNW,292,0.0,14.0,74,0.00,,,0.01,Wunderground v.1.13,2013-02-26 01:40:00,
2013-02-25 18:50:00,25.8,19.3,29.91,WNW,292,0.0,14.0,76,0.00,,,0.01,Wunderground v.1.13,2013-02-26 01:50:00,
2013-02-25 18:55:00,25.3,18.8,29.91,WNW,292,0.0,14.0,76,0.00,,,0.01,Wunderground v.1.13,2013-02-26 01:55:00,
2013-02-25 19:00:00,24.8,18.6,29.91,WNW,292,0.0,14.0,77,0.00,,,0.01,Wunderground v.1.13,2013-02-26 02:00:00,
2013-02-25 19:05:00,24.4,18.2,29.91,WNW,292,0.0,14.0,77,0.00,,,0.01,Wunderground v.1.13,2013-02-26 02:05:00,
2013-02-25 19:10:00,23.9,17.7,29.91,WNW,292,0.0,14.0,77,0.00,,,0.01,Wunderground v.1.13,2013-02-26 02:10:00,
2013-02-25 19:20:00,23.2,17.4,29.91,WNW,292,0.0,14.0,78,0.00,,,0.01,Wunderground v.1.13,2013-02-26 02:20:00,
2013-02-25 19:25:00,22.9,17.1,29.91,WNW,292,0.0,14.0,78,0.00,,,0.01,Wunderground v.1.13,2013-02-26 02:25:00,
2013-02-25 19:30:00,22.4,16.9,29.91,WNW,292,0.0,14.0,79,0.00,,,0.01,Wunderground v.1.13,2013-02-26 02:30:00,
2013-02-25 19:35:00,22.2,16.7,29.90,WNW,292,0.0,14.0,79,0.00,,,0.01,Wunderground v.1.13,2013-02-26 02:35:00,
2013-02-25 19:40:00,21.8,16.3,29.90,WNW,292,0.0,14.0,79,0.00,,,0.01,Wunderground v.1.13,2013-02-26 02:40:00,
2013-02-25 19:45:00,21.3,16.1,29.90,WNW,292,0.0,14.0,80,0.00,,,0.01,Wunderground v.1.13,2013-02-26 02:45:00,
2013-02-25 19:50:00,21.1,15.9,29.89,WNW,292,0.0,14.0,80,0.00,,,0.01,Wunderground v.1.13,2013-02-26 02:50:00,
2013-02-25 20:00:00,20.8,15.6,29.89,WNW,292,0.0,14.0,80,0.00,,,0.01,Wunderground v.1.13,2013-02-26 03:00:00,
2013-02-25 20:05:00,20.5,15.3,29.89,WNW,292,0.0,14.0,80,0.00,,,0.01,Wunderground v.1.13,2013-02-26 03:05:00,
2013-02-25 20:10:00,20.5,15.3,29.89,WNW,292,0.0,14.0,80,0.00,,,0.01,Wunderground v.1.13,2013-02-26 03:10:00,
2013-02-25 20:15:00,20.5,15.3,29.89,WNW,292,0.0,14.0,80,0.00,,,0.01,Wunderground v.1.13,2013-02-26 03:15:00,
2013-02-25 20:20:00,20.2,15.0,29.89,WNW,292,0.0,14.0,80,0.00,,,0.01,Wunderground v.1.13,2013-02-26 03:20:00,
2013-02-25 20:25:00,19.9,14.7,29.89,WNW,292,0.0,14.0,80,0.00,,,0.01,Wunderground v.1.13,2013-02-26 03:25:00,
2013-02-25 20:30:00,19.5,14.3,29.89,WNW,292,0.0,14.0,80,0.00,,,0.01,Wunderground v.1.13,2013-02-26 03:30:00,
2013-02-25 20:35:00,19.4,14.2,29.90,WNW,292,0.0,14.0,80,0.00,,,0.01,Wunderground v.1.13,2013-02-26 03:35:00,
2013-02-25 20:40:00,19.2,14.3,29.90,WNW,292,0.0,14.0,81,0.00,,,0.01,Wunderground v.1.13,2013-02-26 03:40:00,
2013-02-25 20:45:00,19.2,14.3,29.90,WNW,292,0.0,14.0,81,0.00,,,0.01,Wunderground v.1.13,2013-02-26 03:45:00,
2013-02-25 20:50:00,18.9,14.0,29.90,WNW,292,0.0,14.0,81,0.00,,,0.01,Wunderground v.1.13,2013-02-26 03:50:00,
2013-02-25 20:55:00,18.6,13.7,29.90,WNW,292,0.0,14.0,81,0.00,,,0.01,Wunderground v.1.13,2013-02-26 03:55:00,
2013-02-25 21:00:00,18.3,13.4,29.90,WNW,292,0.0,14.0,81,0.00,,,0.01,Wunderground v.1.13,2013-02-26 04:00:00,
2013-02-25 21:05:00,18.0,13.2,29.89,WNW,292,0.0,14.0,81,0.00,,,0.01,Wunderground v.1.13,2013-02-26 04:05:00,
2013-02-25 21:10:00,17.7,12.9,29.89,WNW,292,0.0,14.0,81,0.00,,,0.01,Wunderground v.1.13,2013-02-26 04:10:00,
2013-02-25 21:15:00,17.3,12.7,29.89,WNW,292,0.0,14.0,82,0.00,,,0.01,Wunderground v.1.13,2013-02-26 04:15:00,
2013-02-25 21:25:00,17.0,12.5,29.89,WNW,292,0.0,14.0,82,0.00,,,0.01,Wunderground v.1.13,2013-02-26 04:25:00,
2013-02-25 21:30:00,16.7,12.2,29.89,WNW,292,0.0,14.0,82,0.00,,,0.01,Wunderground v.1.13,2013-02-26 04:30:00,
2013-02-25 21:35:00,16.5,12.0,29.90,WNW,292,0.0,14.0,82,0.00,,,0.01,Wunderground v.1.13,2013-02-26 04:35:00,
2013-02-25 21:40:00,16.4,11.9,29.90,WNW,292,0.0,14.0,82,0.00,,,0.01,Wunderground v.1.13,2013-02-26 04:40:00,
2013-02-25 21:45:00,16.1,11.6,29.90,WNW,292,0.0,14.0,82,0.00,,,0.01,Wunderground v.1.13,2013-02-26 04:45:00,
2013-02-25 21:55:00,15.7,11.5,29.89,WNW,292,0.0,14.0,83,0.00,,,0.01,Wunderground v.1.13,2013-02-26 04:55:00,
2013-02-25 22:00:00,15.9,11.9,29.89,WNW,292,0.0,14.0,84,0.00,,,0.01,Wunderground v.1.13,2013-02-26 05:00:00,
2013-02-25 22:05:00,16.1,12.1,29.89,WNW,292,0.0,14.0,84,0.00,,,0.01,Wunderground v.1.13,2013-02-26 05:05:00,
2013-02-25 22:10:00,16.2,11.9,29.89,WNW,292,0.0,14.0,83,0.00,,,0.01,Wunderground v.1.13,2013-02-26 05:10:00,
2013-02-25 22:20:00,16.1,12.1,29.89,WNW,292,0.0,14.0,84,0.00,,,0.01,Wunderground v.1.13,2013-02-26 05:20:00,
2013-02-25 22:25:00,16.2,12.2,29.89,WNW,292,0.0,14.0,84,0.00,,,0.01,Wunderground v.1.13,2013-02-26 05:25:00,
2013-02-25 22:30:00,16.2,12.2,29.89,WNW,292,0.0,14.0,84,0.00,,,0.01,Wunderground v.1.13,2013-02-26 05:30:00,
2013-02-25 22:35:00,16.2,11.9,29.90,WNW,292,0.0,14.0,83,0.00,,,0.01,Wunderground v.1.13,2013-02-26 05:35:00,
2013-02-25 22:45:00,16.1,11.8,29.90,WNW,292,0.0,14.0,83,0.00,,,0.01,Wunderground v.1.13,2013-02-26 05:45:00,
2013-02-25 22:50:00,15.9,11.7,29.90,WNW,292,0.0,14.0,83,0.00,,,0.01,Wunderground v.1.13,2013-02-26 05:50:00,
2013-02-25 22:55:00,15.6,11.1,29.90,WNW,292,0.0,14.0,82,0.00,,,0.01,Wunderground v.1.13,2013-02-26 05:55:00,
2013-02-25 23:00:00,15.4,10.9,29.90,WNW,292,0.0,14.0,82,0.00,,,0.01,Wunderground v.1.13,2013-02-26 06:00:00,
2013-02-25 23:05:00,15.2,10.7,29.90,WNW,292,0.0,14.0,82,0.00,,,0.01,Wunderground v.1.13,2013-02-26 06:05:00,
2013-02-25 23:10:00,14.9,10.4,29.90,WNW,292,0.0,14.0,82,0.00,,,0.01,Wunderground v.1.13,2013-02-26 06:10:00,
2013-02-25 23:15:00,14.8,10.3,29.90,WNW,292,0.0,14.0,82,0.00,,,0.01,Wunderground v.1.13,2013-02-26 06:15:00,
2013-02-25 23:20:00,14.8,10.3,29.91,WNW,292,0.0,14.0,82,0.00,,,0.01,Wunderground v.1.13,2013-02-26 06:20:00,
2013-02-25 23:25:00,14.6,10.1,29.91,WNW,292,0.0,14.0,82,0.00,,,0.01,Wunderground v.1.13,2013-02-26 06:25:00,
2013-02-25 23:30:00,14.3,9.5,29.91,WNW,292,0.0,14.0,81,0.00,,,0.01,Wunderground v.1.13,2013-02-26 06:30:00,
2013-02-25 23:35:00,14.1,9.3,29.90,WNW,292,0.0,14.0,81,0.00,,,0.01,Wunderground v.1.13,2013-02-26 06:35:00,
2013-02-25 23:40:00,13.8,9.0,29.90,WNW,292,0.0,14.0,81,0.00,,,0.01,Wunderground v.1.13,2013-02-26 06:40:00,
2013-02-25 23:45:00,13.6,9.1,29.90,WNW,292,0.0,14.0,82,0.00,,,0.01,Wunderground v.1.13,2013-02-26 06:45:00,
2013-02-25 23:50:00,13.6,9.1,29.89,WNW,292,0.0,14.0,82,0.00,,,0.01,Wunderground v.1.13,2013-02-26 06:50:00,
2013-02-25 23:55:00,13.5,9.0,29.89,WNW,292,0.0,14.0,82,0.00,,,0.01,Wunderground v.1.13,2013-02-26 06:55:00,